createdAt,value
2022-12-17T12:02:10.586Z,163.50
2022-12-17T12:04:25.887Z,150.50
2022-12-17T12:06:19.402Z,159.25
2022-12-17T12:08:21.846Z,161.00
2022-12-17T12:10:16.504Z,154.25
2022-12-17T12:12:25.617Z,148.25
2022-12-17T12:14:19.015Z,141.25
2022-12-17T12:16:33.182Z,144.50
2022-12-17T12:18:49.432Z,142.00
2022-12-17T12:20:59.625Z,145.25
2022-12-17T12:22:54.459Z,128.75
2022-12-17T12:24:47.624Z,134.25
2022-12-17T12:26:39.702Z,130.75
2022-12-17T12:28:32.617Z,130.25
2022-12-17T12:30:36.377Z,117.00
2022-12-17T12:32:39.573Z,126.75
2022-12-17T12:34:35.788Z,116.75
2022-12-17T12:36:28.368Z,109.80
2022-12-17T12:38:18.431Z,109.20
2022-12-17T12:40:23.093Z,110.00
2022-12-17T12:42:35.707Z,89.60
2022-12-17T12:44:35.014Z,99.60
2022-12-17T12:46:31.387Z,97.40
2022-12-17T12:48:32.151Z,92.00
2022-12-17T12:50:31.292Z,98.50
2022-12-17T12:52:21.846Z,91.75
2022-12-17T12:54:19.119Z,110.20
2022-12-17T12:56:09.416Z,118.50
2022-12-17T12:58:16.445Z,128.00
2022-12-17T13:00:07.927Z,137.00
2022-12-17T13:01:58.190Z,130.00
2022-12-17T13:03:57.446Z,127.25
2022-12-17T13:05:53.815Z,119.75
2022-12-17T13:07:27.530Z,124.00
2022-12-17T13:09:15.314Z,116.50
2022-12-17T13:10:47.466Z,112.50
2022-12-17T13:12:28.974Z,130.00
2022-12-17T13:14:01.434Z,128.25
2022-12-17T13:15:37.610Z,129.50
2022-12-17T13:17:34.674Z,140.25
2022-12-17T13:19:31.846Z,130.50
2022-12-17T13:21:05.706Z,141.25
2022-12-17T13:22:37.478Z,125.25
2022-12-17T13:24:13.458Z,127.50
2022-12-17T13:25:45.238Z,136.50
2022-12-17T13:27:34.565Z,145.25
2022-12-17T13:29:22.523Z,153.25
2022-12-17T13:31:05.057Z,156.00
2022-12-17T13:32:41.627Z,148.75
2022-12-17T13:34:34.999Z,157.00
2022-12-17T13:36:21.805Z,141.75
2022-12-17T13:38:04.962Z,154.75
2022-12-17T13:39:52.365Z,162.00
2022-12-17T13:41:33.715Z,162.75
2022-12-17T13:43:05.360Z,150.50
2022-12-17T13:44:41.237Z,164.25
2022-12-17T13:46:29.993Z,157.50
2022-12-17T13:48:01.720Z,168.75
2022-12-17T13:49:33.636Z,161.75
2022-12-17T13:51:05.558Z,156.50
2022-12-17T13:52:37.225Z,149.75
2022-12-17T13:54:15.256Z,167.50
2022-12-17T13:55:51.682Z,164.75
2022-12-17T13:57:24.796Z,147.25
2022-12-17T13:58:57.235Z,149.00
2022-12-17T14:00:30.604Z,155.50
2022-12-17T14:02:05.381Z,143.00
2022-12-17T14:04:04.672Z,150.75
2022-12-17T14:05:40.235Z,126.75
2022-12-17T14:07:11.952Z,144.00
2022-12-17T14:08:43.850Z,140.50
2022-12-17T14:10:16.977Z,135.00
2022-12-17T14:12:08.418Z,147.50
2022-12-17T14:13:40.647Z,141.00
2022-12-17T14:15:24.634Z,146.25
2022-12-17T14:16:56.378Z,148.00
2022-12-17T14:18:28.116Z,143.75
2022-12-17T14:20:05.122Z,151.00
2022-12-17T14:21:37.507Z,149.25
2022-12-17T14:23:21.537Z,163.25
2022-12-17T14:24:53.279Z,154.75
2022-12-17T14:26:25.156Z,150.25
2022-12-17T14:28:00.510Z,155.00
2022-12-17T14:29:32.660Z,149.00
2022-12-17T14:31:29.973Z,155.25
2022-12-17T14:33:01.721Z,158.50
2022-12-17T14:34:42.744Z,131.75
2022-12-17T14:36:20.182Z,145.75
2022-12-17T14:37:51.926Z,155.25
2022-12-17T14:39:25.373Z,150.00
2022-12-17T14:41:02.211Z,171.00
2022-12-17T14:42:35.422Z,161.25
2022-12-17T14:44:07.436Z,165.50
2022-12-17T14:45:59.155Z,159.00
2022-12-17T14:47:32.567Z,168.00
2022-12-17T14:49:04.990Z,170.75
2022-12-17T14:50:36.988Z,161.75
2022-12-17T14:52:13.273Z,174.00
2022-12-17T14:53:44.904Z,168.50
2022-12-17T14:55:36.785Z,180.25
2022-12-17T14:57:08.531Z,163.50
2022-12-17T14:58:45.401Z,167.50
2022-12-17T15:00:17.227Z,152.25
2022-12-17T15:01:54.201Z,176.50
2022-12-17T15:03:36.109Z,168.75
2022-12-17T15:05:12.789Z,162.50
2022-12-17T15:06:44.567Z,167.00
2022-12-17T15:08:16.269Z,162.75
2022-12-17T15:09:48.304Z,156.25
2022-12-17T15:11:21.471Z,161.50
2022-12-17T15:12:53.315Z,157.25
2022-12-17T15:14:24.999Z,158.75
2022-12-17T15:15:57.502Z,156.00
2022-12-17T15:17:29.313Z,151.25
2022-12-17T15:19:01.283Z,157.00
2022-12-17T15:20:33.020Z,147.50
2022-12-17T15:22:05.070Z,146.00
2022-12-17T15:23:39.143Z,137.75
2022-12-17T15:25:13.159Z,143.00
2022-12-17T15:26:44.958Z,132.75
2022-12-17T15:28:16.920Z,133.00
2022-12-17T15:29:48.633Z,133.75
2022-12-17T15:31:24.610Z,130.00
2022-12-17T15:32:57.815Z,126.50
2022-12-17T15:34:29.469Z,131.25
2022-12-17T15:36:01.573Z,129.00
2022-12-17T15:37:33.203Z,128.00
2022-12-17T15:39:08.656Z,120.75
2022-12-17T15:40:41.307Z,116.25
2022-12-17T15:42:31.313Z,126.75
2022-12-17T15:44:03.032Z,110.75
2022-12-17T15:45:34.770Z,121.25
2022-12-17T15:47:06.497Z,120.50
2022-12-17T15:48:38.519Z,109.40
2022-12-17T15:50:10.761Z,114.00
2022-12-17T15:51:42.459Z,126.75
2022-12-17T15:53:14.406Z,146.50
2022-12-17T15:54:46.083Z,152.25
2022-12-17T15:56:20.581Z,142.00
2022-12-17T15:57:52.286Z,159.50
2022-12-17T15:59:24.255Z,156.50
2022-12-17T16:00:56.306Z,159.50
2022-12-17T16:02:28.120Z,161.50
2022-12-17T16:04:00.432Z,157.25
2022-12-17T16:05:32.128Z,150.50
2022-12-17T16:07:04.431Z,160.00
2022-12-17T16:08:38.879Z,151.25
2022-12-17T16:10:11.631Z,145.50
2022-12-17T16:11:43.333Z,147.00
2022-12-17T16:13:15.923Z,146.50
2022-12-17T16:14:47.722Z,148.25
2022-12-17T16:16:19.655Z,151.50
2022-12-17T16:17:51.619Z,151.75
2022-12-17T16:19:24.827Z,144.25
2022-12-17T16:21:02.217Z,143.00
2022-12-17T16:22:33.915Z,150.25
2022-12-17T16:24:05.848Z,144.25
2022-12-17T16:25:37.568Z,143.50
2022-12-17T16:27:09.357Z,147.50
2022-12-17T16:28:44.014Z,145.00
2022-12-17T16:30:15.853Z,137.75
2022-12-17T16:31:48.963Z,153.00
2022-12-17T16:33:21.012Z,148.00
2022-12-17T16:34:52.696Z,138.50
2022-12-17T16:36:24.914Z,138.50
2022-12-17T16:37:56.739Z,126.00
2022-12-17T16:39:28.761Z,129.75
2022-12-17T16:41:01.901Z,126.25
2022-12-17T16:42:33.572Z,127.75
2022-12-17T16:44:05.360Z,127.00
2022-12-17T16:45:39.873Z,122.00
2022-12-17T16:47:11.578Z,122.25
2022-12-17T16:48:43.314Z,130.25
2022-12-17T16:50:16.870Z,142.75
2022-12-17T16:51:52.630Z,311.50
2022-12-17T16:53:24.406Z,322.75
2022-12-17T16:54:56.103Z,241.25
2022-12-17T16:56:28.297Z,230.00
2022-12-17T16:57:59.961Z,206.33
2022-12-17T16:59:31.672Z,187.25
2022-12-17T17:01:03.709Z,172.00
2022-12-17T17:02:37.370Z,170.75
2022-12-17T17:04:10.136Z,165.00
2022-12-17T17:05:42.003Z,152.75
2022-12-17T17:07:13.818Z,174.00
2022-12-17T17:08:45.644Z,169.00
2022-12-17T17:10:17.489Z,171.50
2022-12-17T17:11:51.801Z,156.75
2022-12-17T17:13:23.975Z,157.00
2022-12-17T17:14:55.876Z,165.50
2022-12-17T17:16:30.438Z,119.50
2022-12-17T17:18:02.482Z,175.50
2022-12-17T17:19:34.372Z,173.00
2022-12-17T17:21:21.697Z,174.00
2022-12-17T17:22:56.151Z,171.50
2022-12-17T17:24:29.557Z,166.50
2022-12-17T17:26:01.994Z,165.25
2022-12-17T17:27:33.786Z,156.50
2022-12-17T17:29:06.172Z,166.50
2022-12-17T17:30:38.059Z,176.75
2022-12-17T17:32:11.309Z,167.00
2022-12-17T17:33:49.281Z,179.00
2022-12-17T17:35:21.051Z,162.50
2022-12-17T17:36:52.736Z,157.25
2022-12-17T17:38:24.700Z,161.25
2022-12-17T17:39:56.652Z,169.25
2022-12-17T17:41:30.323Z,159.00
2022-12-17T17:43:02.087Z,158.25
2022-12-17T17:44:34.138Z,156.00
2022-12-17T17:46:07.462Z,137.75
2022-12-17T17:47:39.284Z,163.50
2022-12-17T17:49:11.935Z,129.00
2022-12-17T17:50:44.761Z,137.25
2022-12-17T17:52:17.859Z,141.00
2022-12-17T17:53:50.940Z,138.50
2022-12-17T17:55:23.412Z,143.25
2022-12-17T17:56:55.267Z,144.00
2022-12-17T17:58:27.013Z,139.75
2022-12-17T17:59:58.721Z,123.75
2022-12-17T18:01:32.143Z,127.25
2022-12-17T18:03:04.226Z,138.25
2022-12-17T18:04:36.123Z,125.50
2022-12-17T18:06:08.786Z,126.50
2022-12-17T18:07:40.520Z,130.25
2022-12-17T18:09:12.568Z,110.75
2022-12-17T18:10:59.786Z,119.50
2022-12-17T18:12:49.862Z,116.00
2022-12-17T18:14:21.544Z,88.75
2022-12-17T18:15:53.901Z,111.50
2022-12-17T18:17:25.719Z,110.75
2022-12-17T18:18:59.347Z,108.40
2022-12-17T18:20:31.111Z,105.80
2022-12-17T18:22:02.953Z,109.80
2022-12-17T18:23:34.866Z,111.40
2022-12-17T18:25:06.874Z,318.75
2022-12-17T18:26:42.306Z,269.25
2022-12-17T18:28:14.078Z,249.75
2022-12-17T18:29:45.815Z,235.33
2022-12-17T18:31:21.750Z,199.00
2022-12-17T18:32:53.714Z,185.33
2022-12-17T18:34:27.849Z,172.50
2022-12-17T18:35:59.893Z,167.75
2022-12-17T18:37:31.625Z,158.00
2022-12-17T18:39:03.564Z,156.25
2022-12-17T18:40:36.239Z,151.50
2022-12-17T18:42:27.083Z,147.50
2022-12-17T18:44:00.199Z,136.75
2022-12-17T18:45:32.096Z,145.25
2022-12-17T18:47:03.991Z,154.50
2022-12-17T18:48:36.135Z,154.00
2022-12-17T18:50:09.254Z,167.25
2022-12-17T18:51:41.955Z,154.00
2022-12-17T18:53:13.744Z,149.00
2022-12-17T18:54:45.766Z,153.00
2022-12-17T18:56:37.831Z,159.75
2022-12-17T18:58:09.695Z,147.75
2022-12-17T18:59:41.636Z,157.75
2022-12-17T19:01:19.109Z,155.00
2022-12-17T19:02:50.985Z,159.00
2022-12-17T19:04:22.982Z,141.25
2022-12-17T19:05:54.966Z,140.00
2022-12-17T19:07:26.971Z,147.00
2022-12-17T19:08:58.814Z,155.50
2022-12-17T19:10:30.677Z,164.25
2022-12-17T19:12:06.478Z,158.25
2022-12-17T19:13:38.414Z,169.75
2022-12-17T19:15:10.938Z,163.00
2022-12-17T19:16:43.085Z,173.00
2022-12-17T19:18:15.134Z,162.50
2022-12-17T19:19:47.630Z,163.00
2022-12-17T19:21:20.572Z,182.50
2022-12-17T19:22:52.448Z,160.50
2022-12-17T19:24:24.270Z,169.75
2022-12-17T19:25:56.801Z,176.00
2022-12-17T19:27:28.953Z,166.00
2022-12-17T19:29:01.093Z,175.00
2022-12-17T19:30:33.012Z,168.50
2022-12-17T19:32:04.966Z,172.75
2022-12-17T19:33:36.869Z,172.75
2022-12-17T19:35:09.017Z,180.50
2022-12-17T19:36:41.465Z,167.75
2022-12-17T19:38:13.368Z,171.00
2022-12-17T19:39:45.740Z,172.75
2022-12-17T19:41:17.459Z,169.50
2022-12-17T19:42:49.284Z,161.25
2022-12-17T19:44:21.545Z,163.75
2022-12-17T19:45:53.459Z,158.75
2022-12-17T19:47:25.477Z,158.50
2022-12-17T19:48:57.563Z,152.75
2022-12-17T19:50:29.706Z,148.25
2022-12-17T19:52:01.701Z,146.75
2022-12-17T19:53:33.965Z,132.50
2022-12-17T19:55:05.972Z,141.50
2022-12-17T19:56:37.765Z,137.50
2022-12-17T19:58:09.850Z,136.00
2022-12-17T19:59:41.607Z,143.75
2022-12-17T20:01:15.115Z,144.00
2022-12-17T20:02:47.187Z,149.50
2022-12-17T20:04:19.031Z,161.75
2022-12-17T20:05:50.863Z,153.50
2022-12-17T20:07:22.759Z,157.50
2022-12-17T20:08:54.682Z,154.50
2022-12-17T20:10:26.366Z,141.50
2022-12-17T20:11:58.080Z,137.25
2022-12-17T20:13:29.755Z,153.75
2022-12-17T20:15:01.571Z,140.75
2022-12-17T20:16:42.510Z,150.25
2022-12-17T20:18:14.294Z,137.25
2022-12-17T20:19:46.060Z,153.75
2022-12-17T20:21:17.830Z,154.50
2022-12-17T20:22:49.616Z,129.25
2022-12-17T20:24:25.879Z,129.00
2022-12-17T20:26:06.334Z,139.75
2022-12-17T20:27:38.917Z,140.25
2022-12-17T20:29:10.751Z,150.25
2022-12-17T20:30:42.495Z,145.50
2022-12-17T20:32:14.390Z,151.50
2022-12-17T20:33:46.154Z,140.00
2022-12-17T20:35:17.936Z,145.50
2022-12-17T20:36:50.649Z,140.25
2022-12-17T20:38:22.692Z,143.00
2022-12-17T20:39:55.050Z,128.25
2022-12-17T20:41:28.215Z,138.25
2022-12-17T20:42:59.920Z,146.50
2022-12-17T20:44:31.635Z,162.75
2022-12-17T20:46:03.585Z,156.00
2022-12-17T20:47:35.500Z,150.00
2022-12-17T20:49:07.723Z,161.25
2022-12-17T20:50:40.988Z,150.00
2022-12-17T20:52:12.630Z,160.50
2022-12-17T20:53:44.853Z,148.00
2022-12-17T20:55:16.638Z,156.75
2022-12-17T20:56:48.398Z,152.75
2022-12-17T20:58:20.103Z,134.25
2022-12-17T20:59:51.895Z,147.25
2022-12-17T21:01:24.933Z,142.25
2022-12-17T21:02:57.237Z,145.00
2022-12-17T21:04:29.296Z,145.75
2022-12-17T21:06:14.311Z,140.75
2022-12-17T21:07:45.986Z,130.50
2022-12-17T21:09:22.413Z,125.50
2022-12-17T21:10:56.923Z,128.75
2022-12-17T21:12:48.521Z,127.75
2022-12-17T21:14:20.233Z,151.25
2022-12-17T21:15:54.940Z,150.50
2022-12-17T21:17:26.610Z,142.75
2022-12-17T21:18:59.538Z,146.00
2022-12-17T21:20:31.199Z,145.50
2022-12-17T21:22:03.404Z,145.50
2022-12-17T21:23:35.862Z,139.50
2022-12-17T21:25:08.145Z,142.75
2022-12-17T21:26:41.180Z,141.50
2022-12-17T21:28:12.830Z,131.25
2022-12-17T21:29:44.547Z,146.75
2022-12-17T21:31:17.744Z,139.25
2022-12-17T21:32:49.463Z,134.25
2022-12-17T21:34:22.528Z,130.25
2022-12-17T21:36:07.572Z,122.25
2022-12-17T21:37:39.706Z,127.00
2022-12-17T21:39:13.211Z,121.50
2022-12-17T21:40:44.991Z,142.75
2022-12-17T21:42:35.265Z,132.25
2022-12-17T21:44:07.911Z,119.50
2022-12-17T21:45:42.294Z,114.75
2022-12-17T21:47:13.994Z,129.25
2022-12-17T21:48:46.251Z,133.25
2022-12-17T21:50:18.334Z,142.25
2022-12-17T21:51:49.987Z,135.00
2022-12-17T21:53:21.794Z,133.75
2022-12-17T21:54:53.574Z,132.75
2022-12-17T21:56:25.544Z,135.00
2022-12-17T21:57:58.689Z,135.25
2022-12-17T21:59:30.435Z,123.75
2022-12-17T22:01:18.383Z,136.00
2022-12-17T22:02:51.375Z,134.00
2022-12-17T22:04:23.789Z,122.25
2022-12-17T22:05:55.625Z,119.25
2022-12-17T22:07:32.378Z,122.75
2022-12-17T22:09:18.112Z,136.00
2022-12-17T22:10:59.284Z,145.25
2022-12-17T22:12:52.056Z,138.50
2022-12-17T22:14:23.914Z,144.75
2022-12-17T22:15:55.843Z,139.75
2022-12-17T22:17:28.297Z,132.00
2022-12-17T22:19:00.572Z,135.25
2022-12-17T22:20:32.368Z,136.75
2022-12-17T22:22:04.067Z,136.00
2022-12-17T22:23:35.694Z,136.75
2022-12-17T22:25:12.382Z,133.00
2022-12-17T22:26:44.480Z,128.50
2022-12-17T22:28:16.174Z,143.25
2022-12-17T22:30:06.333Z,141.50
2022-12-17T22:31:56.660Z,132.75
2022-12-17T22:33:52.483Z,141.25
2022-12-17T22:36:06.445Z,140.00
2022-12-17T22:40:34.306Z,125.00
2022-12-17T22:44:33.363Z,125.50
2022-12-17T22:44:37.654Z,130.25
2022-12-17T22:44:38.737Z,125.00
2022-12-17T22:45:11.280Z,133.00
2022-12-17T22:46:43.831Z,119.75
2022-12-17T22:48:15.836Z,125.00
2022-12-17T22:49:47.827Z,111.25
2022-12-17T22:51:26.223Z,109.25
2022-12-17T22:53:10.839Z,115.80
2022-12-17T22:54:42.860Z,101.75
2022-12-17T22:56:26.652Z,112.00
2022-12-17T22:58:06.875Z,98.75
2022-12-17T22:59:38.619Z,113.00
2022-12-17T23:01:10.296Z,104.20
2022-12-17T23:02:42.002Z,98.00
2022-12-17T23:04:14.236Z,96.40
2022-12-17T23:05:46.047Z,107.20
2022-12-17T23:07:18.185Z,121.75
2022-12-17T23:08:49.974Z,109.00
2022-12-17T23:10:21.705Z,104.00
2022-12-17T23:11:53.389Z,105.40
2022-12-17T23:13:25.106Z,108.20
2022-12-17T23:14:56.830Z,108.00
2022-12-17T23:16:28.602Z,117.50
2022-12-17T23:18:01.223Z,113.50
2022-12-17T23:19:32.923Z,119.50
2022-12-17T23:21:12.492Z,109.00
2022-12-17T23:22:44.719Z,124.00
2022-12-17T23:24:16.425Z,125.50
2022-12-17T23:25:48.115Z,124.50
2022-12-17T23:27:19.809Z,135.00
2022-12-17T23:29:01.867Z,128.75
2022-12-17T23:30:33.582Z,124.50
2022-12-17T23:32:05.603Z,128.25
2022-12-17T23:33:37.704Z,127.50
